Terminal Aerodrome Forecast
Issued by NWS Greer, SC

Home | Current Version | Previous Version | Text Only | Print | Product List | Glossary On
Versions: 1 2 3 4 5 6 7 8 9 10 11 12 13 14 15 16 17 18 19 20 21
000
FTUS42 KGSP 111140
TAFCLT
TAF
KCLT 111140Z 1112/1212 VRB02KT P6SM SKC
     FM111600 13005KT P6SM BKN045
     FM111900 13004KT P6SM OVC030
     FM120000 07003KT P6SM -DZ OVC015
     FM120900 20004KT 5SM -DZ BR OVC008 WS020/23040KT=

USA.gov is the U.S. government's official web portal to all federal, state and local government web resources and services.